createdAt,value
2019-05-31T00:01:29.865Z,101526.47
2019-05-31T00:03:57.299Z,101524.32
2019-05-31T00:06:25.051Z,101520.96
2019-05-31T00:08:52.156Z,101521.09
2019-05-31T00:11:19.361Z,101518.87
2019-05-31T00:13:46.533Z,101525.11
2019-05-31T00:16:13.806Z,101522.58
2019-05-31T00:18:40.973Z,101523.66
2019-05-31T00:21:08.172Z,101513.16
2019-05-31T00:23:35.409Z,101512.20
2019-05-31T00:26:02.921Z,101517.19
2019-05-31T00:28:30.073Z,101521.25
2019-05-31T00:30:58.085Z,101516.69
2019-05-31T00:33:25.300Z,101518.20
2019-05-31T00:35:52.485Z,101509.87
2019-05-31T00:38:20.134Z,101510.95
2019-05-31T00:40:47.313Z,101508.50
2019-05-31T00:43:14.488Z,101506.19
2019-05-31T00:45:41.626Z,101500.30
2019-05-31T00:48:08.741Z,101500.77
2019-05-31T00:50:35.951Z,101494.90
2019-05-31T00:53:04.119Z,101499.55
2019-05-31T00:55:31.451Z,101493.80
2019-05-31T00:57:58.671Z,101501.73
2019-05-31T01:00:25.868Z,101493.73
2019-05-31T01:02:53.063Z,101490.73
2019-05-31T01:05:20.639Z,101490.09
2019-05-31T01:07:47.839Z,101489.11
2019-05-31T01:10:15.410Z,101491.36
2019-05-31T01:12:42.548Z,101488.77
2019-05-31T01:15:10.279Z,101483.73
2019-05-31T01:17:37.766Z,101486.66
2019-05-31T01:20:06.649Z,101485.53
2019-05-31T01:22:33.977Z,101487.98
2019-05-31T01:25:01.433Z,101491.55
2019-05-31T01:27:28.509Z,101497.86
2019-05-31T01:29:55.719Z,101499.35
2019-05-31T01:32:22.800Z,101492.84
2019-05-31T01:34:50.401Z,101493.09
2019-05-31T01:37:18.110Z,101500.05
2019-05-31T01:39:45.259Z,101494.08
2019-05-31T01:42:12.321Z,101495.20
2019-05-31T01:44:39.556Z,101492.06
2019-05-31T01:47:07.329Z,101487.16
2019-05-31T01:49:34.669Z,101492.11
2019-05-31T01:52:02.025Z,101486.86
2019-05-31T01:54:29.449Z,101493.59
2019-05-31T01:56:56.833Z,101487.06
2019-05-31T01:59:24.069Z,101485.67
2019-05-31T02:01:51.398Z,101486.05
2019-05-31T02:04:18.673Z,101488.88
2019-05-31T02:06:47.127Z,101484.16
2019-05-31T02:09:14.584Z,101484.81
2019-05-31T02:11:42.017Z,101487.34
2019-05-31T02:14:10.386Z,101488.11
2019-05-31T02:16:37.621Z,101485.92
2019-05-31T02:19:05.532Z,101486.05
2019-05-31T02:21:32.931Z,101479.48
2019-05-31T02:24:00.093Z,101481.80
2019-05-31T02:26:27.468Z,101483.00
2019-05-31T02:28:54.889Z,101486.14
2019-05-31T02:31:22.090Z,101487.45
2019-05-31T02:33:49.255Z,101492.84
2019-05-31T02:36:17.497Z,101492.98
2019-05-31T02:38:44.816Z,101488.76
2019-05-31T02:41:13.768Z,101490.09
2019-05-31T02:43:41.292Z,101486.53
2019-05-31T02:46:08.915Z,101486.84
2019-05-31T02:48:36.234Z,101488.11
2019-05-31T02:51:03.930Z,101490.05
2019-05-31T02:53:31.237Z,101491.03
2019-05-31T02:56:01.728Z,101490.69
2019-05-31T02:58:30.090Z,101495.44
2019-05-31T03:00:58.640Z,101499.62
2019-05-31T03:03:26.895Z,101498.59
2019-05-31T03:05:55.595Z,101496.17
2019-05-31T03:08:23.247Z,101504.13
2019-05-31T03:10:51.274Z,101501.31
2019-05-31T03:13:21.767Z,101508.83
2019-05-31T03:16:05.362Z,101499.50
2019-05-31T03:18:19.981Z,101496.84
2019-05-31T03:20:50.371Z,101494.05
2019-05-31T03:23:18.648Z,101498.23
2019-05-31T03:25:46.425Z,101501.87
2019-05-31T03:28:14.934Z,101500.96
2019-05-31T03:30:42.290Z,101506.28
2019-05-31T03:33:09.452Z,101504.48
2019-05-31T03:35:38.860Z,101509.17
2019-05-31T03:38:05.588Z,101514.05
2019-05-31T03:40:32.771Z,101523.38
2019-05-31T03:42:59.870Z,101511.67
2019-05-31T03:45:27.606Z,101523.31
2019-05-31T03:47:55.023Z,101520.11
2019-05-31T03:50:24.841Z,101523.75
2019-05-31T03:52:53.136Z,101519.53
2019-05-31T03:55:21.683Z,101526.81
2019-05-31T03:57:49.631Z,101530.47
2019-05-31T04:00:19.666Z,101526.13
2019-05-31T04:02:47.382Z,101529.48
2019-05-31T04:05:14.592Z,101527.38
2019-05-31T04:07:41.749Z,101531.53
2019-05-31T04:10:09.028Z,101526.12
2019-05-31T04:12:36.360Z,101520.38
2019-05-31T04:15:05.962Z,101519.73
2019-05-31T04:17:33.145Z,101524.55
2019-05-31T04:20:00.324Z,101523.36
2019-05-31T04:22:27.503Z,101517.54
2019-05-31T04:24:54.963Z,101526.65
2019-05-31T04:27:22.948Z,101523.39
2019-05-31T04:29:51.455Z,101522.85
2019-05-31T04:32:20.360Z,101518.98
2019-05-31T04:34:47.732Z,101519.05
2019-05-31T04:37:15.777Z,101520.66
2019-05-31T04:39:43.272Z,101511.70
2019-05-31T04:42:10.548Z,101516.21
2019-05-31T04:44:37.699Z,101519.75
2019-05-31T04:47:11.519Z,101520.83
2019-05-31T04:49:34.032Z,101526.27
2019-05-31T04:52:01.183Z,101528.84
2019-05-31T04:54:28.373Z,101531.20
2019-05-31T04:56:55.713Z,101535.17
2019-05-31T04:59:24.751Z,101537.45
2019-05-31T05:01:52.224Z,101533.66
2019-05-31T05:04:20.618Z,101533.41
2019-05-31T05:06:47.812Z,101528.91
2019-05-31T05:09:16.464Z,101529.73
2019-05-31T05:11:44.227Z,101530.38
2019-05-31T05:14:11.388Z,101529.17
2019-05-31T05:16:38.978Z,101527.58
2019-05-31T05:19:06.198Z,101537.73
2019-05-31T05:21:33.751Z,101534.83
2019-05-31T05:24:01.012Z,101539.89
2019-05-31T05:26:28.561Z,101542.31
2019-05-31T05:28:56.086Z,101545.00
2019-05-31T05:31:23.866Z,101538.44
2019-05-31T05:33:51.161Z,101546.87
2019-05-31T05:36:18.338Z,101551.12
2019-05-31T05:38:45.846Z,101556.46
2019-05-31T05:41:13.051Z,101559.13
2019-05-31T05:43:40.213Z,101553.08
2019-05-31T05:46:07.486Z,101555.48
2019-05-31T05:48:34.795Z,101552.34
2019-05-31T05:51:01.957Z,101552.66
2019-05-31T05:53:30.373Z,101560.52
2019-05-31T05:55:57.817Z,101560.36
2019-05-31T05:58:26.198Z,101554.44
2019-05-31T06:00:54.421Z,101553.27
2019-05-31T06:03:22.302Z,101558.73
2019-05-31T06:05:50.610Z,101571.47
2019-05-31T06:08:17.772Z,101564.11
2019-05-31T06:10:45.044Z,101555.73
2019-05-31T06:13:12.198Z,101557.92
2019-05-31T06:15:39.367Z,101554.23
2019-05-31T06:18:06.526Z,101554.02
2019-05-31T06:20:33.590Z,101550.52
2019-05-31T06:23:01.076Z,101552.93
2019-05-31T06:25:31.636Z,101551.44
2019-05-31T06:27:59.176Z,101549.76
2019-05-31T06:30:26.943Z,101549.14
2019-05-31T06:32:54.129Z,101555.52
2019-05-31T06:35:21.165Z,101548.37
2019-05-31T06:37:48.365Z,101542.84
2019-05-31T06:40:17.659Z,101545.64
2019-05-31T06:42:44.843Z,101551.26
2019-05-31T06:45:12.197Z,101546.80
2019-05-31T06:47:39.275Z,101548.01
2019-05-31T06:50:07.118Z,101550.55
2019-05-31T06:52:34.462Z,101545.16
2019-05-31T06:55:01.711Z,101543.98
2019-05-31T06:57:29.906Z,101545.08
2019-05-31T06:59:57.525Z,101536.16
2019-05-31T07:02:26.007Z,101544.53
2019-05-31T07:04:53.254Z,101542.86
2019-05-31T07:07:20.423Z,101544.41
2019-05-31T07:09:47.647Z,101543.11
2019-05-31T07:12:17.614Z,101538.98
2019-05-31T07:14:43.918Z,101544.51
2019-05-31T07:17:11.019Z,101542.35
2019-05-31T07:19:38.577Z,101540.50
2019-05-31T07:22:06.533Z,101543.13
2019-05-31T07:24:34.709Z,101542.02
2019-05-31T07:27:02.020Z,101538.72
2019-05-31T07:29:34.414Z,101541.31
2019-05-31T07:31:58.426Z,101543.86
2019-05-31T07:34:25.592Z,101538.89
2019-05-31T07:36:52.819Z,101532.69
2019-05-31T07:39:20.356Z,101526.13
2019-05-31T07:41:47.562Z,101530.75
2019-05-31T07:44:15.094Z,101528.80
2019-05-31T07:47:01.727Z,101530.92
2019-05-31T07:49:12.432Z,101536.47
2019-05-31T07:51:40.493Z,101534.42
2019-05-31T07:54:07.721Z,101536.55
2019-05-31T07:56:35.313Z,101534.34
2019-05-31T07:59:02.507Z,101531.55
2019-05-31T08:01:30.819Z,101534.00
2019-05-31T08:03:58.235Z,101532.17
2019-05-31T08:06:26.970Z,101536.32
2019-05-31T08:08:54.263Z,101526.67
2019-05-31T08:11:21.423Z,101523.95
2019-05-31T08:13:48.589Z,101531.83
2019-05-31T08:19:29.782Z,101523.08
2019-05-31T08:21:57.032Z,101516.06
2019-05-31T08:27:26.116Z,101525.50
2019-05-31T08:33:23.234Z,101513.54
2019-05-31T08:35:50.775Z,101510.30
2019-05-31T08:38:17.964Z,101508.78
2019-05-31T08:40:45.193Z,101507.33
2019-05-31T08:43:12.374Z,101494.41
2019-05-31T08:48:51.886Z,101503.30
2019-05-31T08:51:19.396Z,101501.47
2019-05-31T08:53:46.579Z,101487.89
2019-05-31T08:56:13.713Z,101489.11
2019-05-31T08:58:40.897Z,101487.24
2019-05-31T09:01:07.987Z,101491.07
2019-05-31T09:03:40.135Z,101492.82
2019-05-31T09:06:24.065Z,101496.20
2019-05-31T09:08:51.710Z,101486.99
2019-05-31T09:11:18.926Z,101483.27
2019-05-31T09:13:45.987Z,101475.92
2019-05-31T09:16:13.207Z,101481.31
2019-05-31T09:18:40.350Z,101460.26
2019-05-31T09:21:07.553Z,101469.23
2019-05-31T09:23:35.498Z,101465.11
2019-05-31T09:26:10.003Z,101471.94
2019-05-31T09:31:31.435Z,101467.01
2019-05-31T09:37:07.106Z,101475.70
2019-05-31T09:39:39.846Z,101466.44
2019-05-31T09:42:10.024Z,101474.99
2019-05-31T09:44:37.538Z,101467.37
2019-05-31T09:48:06.928Z,101470.28
2019-05-31T09:50:34.092Z,101463.89
2019-05-31T09:53:22.841Z,101462.95
2019-05-31T09:55:50.056Z,101463.32
2019-05-31T09:58:17.212Z,101464.89
2019-05-31T10:00:56.083Z,101462.08
2019-05-31T10:06:45.920Z,101459.73
2019-05-31T10:09:25.478Z,101458.17
2019-05-31T10:12:24.644Z,101458.62
2019-05-31T10:14:51.885Z,101470.01
2019-05-31T10:17:19.080Z,101470.25
2019-05-31T10:20:05.809Z,101464.02
2019-05-31T10:22:34.564Z,101455.26
2019-05-31T10:25:02.268Z,101453.72
2019-05-31T10:27:29.566Z,101456.30
2019-05-31T10:29:56.657Z,101461.66
2019-05-31T10:32:23.830Z,101446.35
2019-05-31T10:34:51.366Z,101446.31
2019-05-31T10:37:18.924Z,101446.63
2019-05-31T10:39:46.188Z,101447.87
2019-05-31T10:42:19.666Z,101452.25
2019-05-31T10:44:44.224Z,101446.23
2019-05-31T10:47:11.626Z,101445.92
2019-05-31T10:49:40.137Z,101439.09
2019-05-31T10:52:07.795Z,101437.16
2019-05-31T10:54:36.378Z,101431.70
2019-05-31T10:57:03.685Z,101424.08
2019-05-31T10:59:30.859Z,101423.95
2019-05-31T11:01:58.154Z,101423.50
2019-05-31T11:04:25.383Z,101423.20
2019-05-31T11:06:52.497Z,101427.03
2019-05-31T11:09:19.678Z,101420.79
2019-05-31T11:11:46.842Z,101417.82
2019-05-31T11:14:14.033Z,101412.70
2019-05-31T11:16:41.677Z,101414.20
2019-05-31T11:19:09.071Z,101409.66
2019-05-31T11:21:37.333Z,101420.64
2019-05-31T11:24:04.555Z,101417.48
2019-05-31T11:26:31.761Z,101418.69
2019-05-31T11:28:58.961Z,101408.02
2019-05-31T11:31:26.187Z,101409.43
2019-05-31T11:33:53.395Z,101413.95
2019-05-31T11:36:20.609Z,101412.30
2019-05-31T11:38:47.892Z,101410.48
2019-05-31T11:41:15.117Z,101412.22
2019-05-31T11:43:42.669Z,101410.86
2019-05-31T11:46:10.335Z,101411.70
2019-05-31T11:48:38.665Z,101403.18
2019-05-31T11:51:27.447Z,101406.25
2019-05-31T11:53:39.822Z,101405.20
2019-05-31T11:56:04.442Z,101403.95
2019-05-31T11:58:31.817Z,101405.09
2019-05-31T12:00:59.079Z,101406.34
2019-05-31T12:03:26.258Z,101400.76
2019-05-31T12:05:53.480Z,101393.95
2019-05-31T12:08:20.685Z,101390.54
2019-05-31T12:10:48.693Z,101391.96
2019-05-31T12:13:16.012Z,101392.45
2019-05-31T12:15:44.136Z,101389.13
2019-05-31T12:18:11.774Z,101397.51
2019-05-31T12:20:40.176Z,101390.78
2019-05-31T12:23:07.507Z,101386.70
2019-05-31T12:25:34.827Z,101385.11
2019-05-31T12:28:02.019Z,101388.49
2019-05-31T12:30:29.274Z,101393.28
2019-05-31T12:32:56.505Z,101396.05
2019-05-31T12:35:23.603Z,101386.22
2019-05-31T12:37:51.584Z,101387.53
2019-05-31T12:40:19.377Z,101385.48
2019-05-31T12:42:48.449Z,101390.25
2019-05-31T12:45:15.911Z,101386.92
2019-05-31T12:47:48.213Z,101387.00
2019-05-31T12:50:12.944Z,101388.26
2019-05-31T12:52:41.345Z,101388.72
2019-05-31T12:55:09.715Z,101389.17
2019-05-31T12:57:36.875Z,101379.95
2019-05-31T13:00:04.809Z,101381.55
2019-05-31T13:02:32.417Z,101379.57
2019-05-31T13:04:59.725Z,101377.38
2019-05-31T13:07:26.930Z,101379.52
2019-05-31T13:09:54.250Z,101376.91
2019-05-31T13:12:21.407Z,101387.03
2019-05-31T13:14:49.712Z,101379.23
2019-05-31T13:17:17.420Z,101375.45
2019-05-31T13:19:45.822Z,101370.11
2019-05-31T13:22:22.707Z,101385.41
2019-05-31T13:24:42.259Z,101390.15
2019-05-31T13:27:09.312Z,101381.95
2019-05-31T13:29:36.594Z,101379.48
2019-05-31T13:32:04.118Z,101379.87
2019-05-31T13:34:31.320Z,101379.13
2019-05-31T13:36:58.639Z,101375.20
2019-05-31T13:39:25.962Z,101378.41
2019-05-31T13:41:54.508Z,101372.31
2019-05-31T13:44:22.632Z,101362.70
2019-05-31T13:46:50.175Z,101363.74
2019-05-31T13:49:17.474Z,101360.03
2019-05-31T13:51:46.394Z,101358.07
2019-05-31T13:54:14.112Z,101361.85
2019-05-31T13:56:41.290Z,101358.36
2019-05-31T13:59:11.675Z,101355.72
2019-05-31T14:01:38.007Z,101357.45
2019-05-31T14:04:05.192Z,101359.60
2019-05-31T14:06:32.458Z,101357.92
2019-05-31T14:08:59.548Z,101354.81
2019-05-31T14:11:26.899Z,101356.07
2019-05-31T14:13:54.534Z,101355.78
2019-05-31T14:16:21.789Z,101362.87
2019-05-31T14:18:50.304Z,101360.67
2019-05-31T14:21:17.898Z,101358.13
2019-05-31T14:23:45.314Z,101357.52
2019-05-31T14:26:12.516Z,101360.28
2019-05-31T14:28:42.810Z,101346.95
2019-05-31T14:31:08.825Z,101344.12
2019-05-31T14:33:36.015Z,101346.00
2019-05-31T14:36:03.651Z,101343.86
2019-05-31T14:38:30.896Z,101342.72
2019-05-31T14:40:58.582Z,101340.02
2019-05-31T14:43:25.818Z,101332.49
2019-05-31T14:45:53.046Z,101333.67
2019-05-31T14:48:20.227Z,101336.22
2019-05-31T14:50:47.328Z,101339.44
2019-05-31T14:53:20.109Z,101335.81
2019-05-31T14:55:44.063Z,101336.66
2019-05-31T14:58:11.386Z,101334.59
2019-05-31T15:00:39.638Z,101332.84
2019-05-31T15:03:06.707Z,101331.03
2019-05-31T15:05:34.825Z,101329.59
2019-05-31T15:08:03.221Z,101331.80
2019-05-31T15:10:32.830Z,101327.87
2019-05-31T15:13:19.502Z,101329.93
2019-05-31T15:15:31.008Z,101323.16
2019-05-31T15:17:58.314Z,101330.63
2019-05-31T15:20:25.900Z,101324.42
2019-05-31T15:22:54.383Z,101329.40
2019-05-31T15:25:21.672Z,101329.73
2019-05-31T15:27:48.978Z,101330.97
2019-05-31T15:30:29.091Z,101327.28
2019-05-31T15:33:12.021Z,101320.86
2019-05-31T15:36:15.424Z,101319.25
2019-05-31T15:38:50.867Z,101319.50
2019-05-31T15:41:15.732Z,101317.17
2019-05-31T15:43:43.227Z,101315.73
2019-05-31T15:46:10.773Z,101319.13
2019-05-31T15:48:37.946Z,101314.38
2019-05-31T15:51:05.575Z,101318.27
2019-05-31T15:53:34.157Z,101314.50
2019-05-31T15:56:01.617Z,101314.74
2019-05-31T15:58:28.715Z,101316.24
2019-05-31T16:00:56.291Z,101313.23
2019-05-31T16:03:35.351Z,101312.42
2019-05-31T16:05:52.494Z,101312.37
2019-05-31T16:08:19.670Z,101305.09
2019-05-31T16:10:47.194Z,101305.19
2019-05-31T16:13:14.415Z,101305.77
2019-05-31T16:15:41.584Z,101304.14
2019-05-31T16:18:08.759Z,101311.73
2019-05-31T16:20:35.848Z,101304.17
2019-05-31T16:23:03.674Z,101307.52
2019-05-31T16:26:22.693Z,101302.36
2019-05-31T16:28:49.944Z,101300.52
2019-05-31T16:31:17.126Z,101308.67
2019-05-31T16:33:44.314Z,101301.95
2019-05-31T16:36:52.303Z,101305.53
2019-05-31T16:39:19.517Z,101303.92
2019-05-31T16:48:08.806Z,101297.04
2019-05-31T16:54:25.931Z,101298.42
2019-05-31T16:56:46.687Z,101298.14
2019-05-31T17:02:33.807Z,101293.89
2019-05-31T17:05:02.272Z,101292.58
2019-05-31T17:07:49.884Z,101293.89
2019-05-31T17:13:51.588Z,101288.51
2019-05-31T17:19:20.183Z,101288.86
2019-05-31T17:24:48.488Z,101288.05
2019-05-31T17:27:15.583Z,101290.86
2019-05-31T17:30:14.763Z,101280.95
2019-05-31T17:45:19.264Z,101274.44
2019-05-31T17:59:42.330Z,101284.89
2019-05-31T18:07:42.128Z,101275.25
2019-05-31T18:16:24.086Z,101277.70
2019-05-31T18:18:51.246Z,101275.58
2019-05-31T18:21:18.403Z,101272.12
2019-05-31T18:32:49.324Z,101270.31
2019-05-31T18:35:16.716Z,101269.64
2019-05-31T18:37:55.016Z,101266.50
2019-05-31T18:40:22.362Z,101272.12
2019-05-31T18:43:01.184Z,101271.67
2019-05-31T18:45:28.289Z,101271.75
2019-05-31T18:47:55.476Z,101279.13
2019-05-31T18:50:23.103Z,101283.20
2019-05-31T18:53:02.969Z,101280.17
2019-05-31T18:55:39.393Z,101280.91
2019-05-31T18:57:59.441Z,101280.70
2019-05-31T19:00:46.248Z,101278.14
2019-05-31T19:06:48.356Z,101278.39
2019-05-31T19:09:47.396Z,101279.72
2019-05-31T19:12:15.050Z,101278.77
2019-05-31T19:14:50.067Z,101278.56
2019-05-31T19:17:17.501Z,101284.84
2019-05-31T19:19:44.698Z,101283.22
2019-05-31T19:22:11.874Z,101280.77
2019-05-31T19:27:40.412Z,101281.64
2019-05-31T19:30:07.849Z,101287.36
2019-05-31T19:32:35.473Z,101286.39
2019-05-31T19:35:03.157Z,101289.59
2019-05-31T19:37:31.562Z,101285.56
2019-05-31T19:39:58.805Z,101288.92
2019-05-31T19:42:25.985Z,101291.43
2019-05-31T19:44:53.218Z,101287.09
2019-05-31T19:47:21.192Z,101295.62
2019-05-31T19:49:48.353Z,101293.46
2019-05-31T19:52:15.726Z,101297.31
2019-05-31T19:54:43.045Z,101300.31
2019-05-31T19:57:10.594Z,101308.35
2019-05-31T19:59:38.037Z,101301.85
2019-05-31T20:02:05.597Z,101304.19
2019-05-31T20:04:32.817Z,101311.34
2019-05-31T20:07:00.055Z,101313.50
2019-05-31T20:09:28.403Z,101309.67
2019-05-31T20:11:55.659Z,101313.52
2019-05-31T20:14:24.402Z,101306.85
2019-05-31T20:16:51.859Z,101309.72
2019-05-31T20:19:20.605Z,101309.38
2019-05-31T20:21:48.237Z,101305.69
2019-05-31T20:24:15.843Z,101308.70
2019-05-31T20:26:43.096Z,101309.20
2019-05-31T20:29:10.728Z,101313.69
2019-05-31T20:31:39.486Z,101311.17
2019-05-31T20:34:06.912Z,101320.05
2019-05-31T20:36:34.316Z,101317.20
2019-05-31T20:39:01.678Z,101315.03
2019-05-31T20:41:41.667Z,101320.36
2019-05-31T20:43:58.301Z,101310.46
2019-05-31T20:46:26.894Z,101313.15
2019-05-31T20:48:56.480Z,101307.13
2019-05-31T20:51:23.621Z,101306.95
2019-05-31T20:53:50.824Z,101308.97
2019-05-31T20:56:17.931Z,101310.77
2019-05-31T20:58:45.184Z,101318.28
2019-05-31T21:01:12.372Z,101315.28
2019-05-31T21:03:39.530Z,101318.27
2019-05-31T21:06:06.736Z,101317.40
2019-05-31T21:08:33.953Z,101320.88
2019-05-31T21:11:01.302Z,101320.69
2019-05-31T21:13:29.962Z,101321.81
2019-05-31T21:15:57.322Z,101328.47
2019-05-31T21:18:24.483Z,101325.24
2019-05-31T21:20:51.629Z,101326.20
2019-05-31T21:23:18.861Z,101325.50
2019-05-31T21:25:46.049Z,101329.28
2019-05-31T21:28:13.325Z,101323.92
2019-05-31T21:30:40.499Z,101327.23
2019-05-31T21:33:08.455Z,101327.52
2019-05-31T21:35:35.569Z,101323.12
2019-05-31T21:38:02.776Z,101330.61
2019-05-31T21:40:31.248Z,101328.55
2019-05-31T21:42:58.481Z,101327.32
2019-05-31T21:45:25.673Z,101330.22
2019-05-31T21:47:52.849Z,101323.80
2019-05-31T21:50:20.065Z,101323.36
2019-05-31T21:52:47.371Z,101319.29
2019-05-31T21:55:14.556Z,101319.55
2019-05-31T21:57:42.243Z,101321.03
2019-05-31T22:00:11.671Z,101319.88
2019-05-31T22:02:39.709Z,101320.48
2019-05-31T22:05:07.069Z,101314.06
2019-05-31T22:07:34.961Z,101317.05
2019-05-31T22:10:02.699Z,101313.47
2019-05-31T22:12:31.125Z,101318.65
2019-05-31T22:14:58.393Z,101318.93
2019-05-31T22:17:25.599Z,101321.74
2019-05-31T22:19:53.123Z,101323.25
2019-05-31T22:22:20.277Z,101320.04
2019-05-31T22:24:47.335Z,101318.27
2019-05-31T22:27:14.675Z,101320.41
2019-05-31T22:29:41.757Z,101318.53
2019-05-31T22:32:15.811Z,101317.88
2019-05-31T22:34:43.334Z,101312.66
2019-05-31T22:37:11.113Z,101324.77
2019-05-31T22:39:38.688Z,101325.36
2019-05-31T22:42:05.908Z,101332.47
2019-05-31T22:44:33.086Z,101328.13
2019-05-31T22:47:00.584Z,101323.73
2019-05-31T22:49:27.772Z,101322.16
2019-05-31T22:51:54.958Z,101323.19
2019-05-31T22:54:22.121Z,101328.04
2019-05-31T22:56:49.779Z,101317.61
2019-05-31T22:59:16.934Z,101324.23
2019-05-31T23:01:44.497Z,101323.73
2019-05-31T23:04:11.793Z,101320.81
2019-05-31T23:06:39.060Z,101320.40
2019-05-31T23:09:06.876Z,101323.06
2019-05-31T23:11:34.322Z,101319.71
2019-05-31T23:14:01.789Z,101314.61
2019-05-31T23:16:28.957Z,101323.14
2019-05-31T23:18:56.257Z,101309.70
2019-05-31T23:21:24.194Z,101306.41
2019-05-31T23:23:51.673Z,101309.67
2019-05-31T23:26:18.909Z,101309.11
2019-05-31T23:28:46.150Z,101314.36
2019-05-31T23:31:13.334Z,101309.73
2019-05-31T23:33:41.849Z,101303.29
2019-05-31T23:36:09.320Z,101309.05
2019-05-31T23:38:37.010Z,101311.36
2019-05-31T23:41:04.446Z,101305.48
2019-05-31T23:43:31.608Z,101304.57
2019-05-31T23:45:58.794Z,101311.02
2019-05-31T23:48:26.161Z,101313.11
2019-05-31T23:50:53.858Z,101307.45
2019-05-31T23:53:21.101Z,101312.20
2019-05-31T23:55:48.478Z,101306.11
2019-05-31T23:58:16.653Z,101305.41
